Aviation Digital Data Service (ADDS)

Output produced by METARs form (0223 UTC 06 December 2020)
found at http://aviationweather.gov/metar/data/
 
METAR text: KRNT 060153Z 17005KT 10SM CLR 11/M03 A3006 RMK AO2 SLP183 T01111028
Conditions at: KRNT (RENTON , WA, US) observed 0153 UTC 06 December 2020
Temperature: 11.1°C (52°F)
Dewpoint: -2.8°C (27°F) [RH = 38%]
Pressure (altimeter): 30.06 inches Hg (1018.0 mb)
[Sea-level pressure: 1018.3 mb]
Winds: from the S (170 degrees) at 6 MPH (5 knots; 2.6 m/s)
Visibility: 10 or more miles (16+ km)
Ceiling: at least 12,000 feet AGL
Clouds: sky clear below 12,000 feet AGL
Weather: no significant weather observed at this time

METAR text: KRNT 060053Z 19006KT 10SM CLR 11/M01 A3004 RMK AO2 SLP178 T01111011
Conditions at: KRNT (RENTON , WA, US) observed 0053 UTC 06 December 2020
Temperature: 11.1°C (52°F)
Dewpoint: -1.1°C (30°F) [RH = 43%]
Pressure (altimeter): 30.04 inches Hg (1017.4 mb)
[Sea-level pressure: 1017.8 mb]
Winds: from the S (190 degrees) at 7 MPH (6 knots; 3.1 m/s)
Visibility: 10 or more miles (16+ km)
Ceiling: at least 12,000 feet AGL
Clouds: sky clear below 12,000 feet AGL
Weather: no significant weather observed at this time